Flight Track Log - Related Links

Times and Time Zones

All times are in EDT time to prevent confusion due to time zone crossing. See the N93698 flight status page for this flight to view local times or setup timezone preferences in your user account.

Time Position Orientation Groundspeed Altitude Reporting Facility
EDT Latitude Longitude Course Direction KTS MPH feet Rate Location/Type
Sat 04:14:15 PM 32.7140 -80.0222 309° West  Level FlightAware Approximate
Sat 04:15:15 PM 32.7370 -80.0556 309° West  Level FlightAware Approximate
Sat 04:16:15 PM 32.7599 -80.0890 309° West  Level FlightAware Approximate
Sat 04:17:15 PM 32.7828 -80.1224 302° West  Level FlightAware Approximate
Sat 04:18:15 PM 32.8014 -80.1574 309° West  Level FlightAware Approximate
Sat 04:19:15 PM 32.8243 -80.1908 309° West  Level FlightAware Approximate
Sat 04:20:15 PM 32.8473 -80.2242 309° West  Level FlightAware Approximate
Sat 04:21:15 PM 32.8702 -80.2577 313° West  Level FlightAware Approximate
Sat 04:22:15 PM 32.8941 -80.2883 307° West  Level FlightAware Approximate
Sat 04:23:15 PM 32.9160 -80.3226 309° West  Level FlightAware Approximate
Sat 04:24:15 PM 32.9389 -80.3561 309° West  Level FlightAware Approximate
Sat 04:25:15 PM 32.9618 -80.3897 309° West  Level FlightAware Approximate
Sat 04:26:15 PM 32.9846 -80.4232 309° West  Level FlightAware Approximate
Sat 04:27:15 PM 33.0075 -80.4568 309° West  Level FlightAware Approximate
Sat 04:28:15 PM 33.0303 -80.4904 309° West  Level FlightAware Approximate
Sat 04:29:15 PM 33.0532 -80.5240 309° West  Level FlightAware Approximate
Sat 04:30:15 PM 33.0760 -80.5576 309° West  Level FlightAware Approximate
Sat 04:31:15 PM 33.0988 -80.5913 309° West  Level FlightAware Approximate
Sat 04:32:15 PM 33.1217 -80.6250 309° West  Level FlightAware Approximate
Sat 04:33:15 PM 33.1445 -80.6587 309° West  Level FlightAware Approximate
Sat 04:34:15 PM 33.1663 -80.6909 309° West  Level FlightAware Approximate
Sat 04:35:15 PM 33.1881 -80.7231 309° West  Level FlightAware Approximate
Sat 04:36:15 PM 33.2099 -80.7554 309° West  Level FlightAware Approximate
Sat 04:37:15 PM 33.2317 -80.7877 309° West  Level FlightAware Approximate
Sat 04:38:15 PM 33.2534 -80.8200 309° West  Level FlightAware Approximate
Sat 04:39:15 PM 33.2752 -80.8523 309° West  Level FlightAware Approximate
Sat 04:40:15 PM 33.2970 -80.8846 309° West  Level FlightAware Approximate
Sat 04:41:15 PM 33.3187 -80.9170 309° West  Level FlightAware Approximate
Sat 04:42:15 PM 33.3405 -80.9494 309° West  Level FlightAware Approximate
Sat 04:43:15 PM 33.3622 -80.9818 309° West  Level FlightAware Approximate
Sat 04:44:15 PM 33.3839 -81.0142 309° West  Level FlightAware Approximate
Sat 04:45:15 PM 33.4056 -81.0466 309° West  Level FlightAware Approximate
Sat 04:46:15 PM 33.4273 -81.0790 309° West  Level FlightAware Approximate
Sat 04:47:15 PM 33.4490 -81.1115 309° West  Level FlightAware Approximate
Sat 04:48:15 PM 33.4707 -81.1439 309° West  Level FlightAware Approximate
Sat 04:49:15 PM 33.4924 -81.1764 309° West  Level FlightAware Approximate
Sat 04:50:15 PM 33.5141 -81.2089 309° West  Level FlightAware Approximate
Sat 04:51:15 PM 33.5358 -81.2414 309° West  Level FlightAware Approximate
Sat 04:52:15 PM 33.5574 -81.2739 309° West  Level FlightAware Approximate
Sat 04:53:15 PM 33.5791 -81.3065 309° West  Level FlightAware Approximate
Sat 04:54:15 PM 33.6007 -81.3390 309° West  Level FlightAware Approximate
Sat 04:55:15 PM 33.6223 -81.3716 309° West  Level FlightAware Approximate
Sat 04:56:15 PM 33.6440 -81.4042 309° West  Level FlightAware Approximate
Sat 04:57:15 PM 33.6656 -81.4368 309° West  Level FlightAware Approximate
Sat 04:58:15 PM 33.6872 -81.4695 309° West  Level FlightAware Approximate
Sat 04:59:15 PM 33.7088 -81.5021 308° West  Level FlightAware Approximate
Sat 05:00:15 PM 33.7304 -81.5348 308° West  Level FlightAware Approximate
Sat 05:01:15 PM 33.7519 -81.5674 308° West  Level FlightAware Approximate
Sat 05:02:15 PM 33.7735 -81.6001 308° West  Level FlightAware Approximate
Sat 05:03:15 PM 33.7951 -81.6328 308° West  Level FlightAware Approximate
Sat 05:04:15 PM 33.8166 -81.6656 293° West  Level FlightAware Approximate
Sat 05:05:15 PM 33.8293 -81.7018 309° West  Level FlightAware Approximate
Sat 05:06:15 PM 33.8511 -81.7344 309° West  Level FlightAware Approximate
Sat 05:07:15 PM 33.8745 -81.7693 309° West  Level FlightAware Approximate
Sat 05:08:15 PM 33.8978 -81.8042 309° West  Level FlightAware Approximate
Sat 05:09:15 PM 33.9211 -81.8392 309° West  Level FlightAware Approximate
Sat 05:10:15 PM 33.9444 -81.8742 309° West  Level FlightAware Approximate
Sat 05:11:15 PM 33.9678 -81.9092 309° West  Level FlightAware Approximate
Sat 05:12:15 PM 33.9911 -81.9442 309° West  Level FlightAware Approximate
Sat 05:13:15 PM 34.0143 -81.9792 309° West  Level FlightAware Approximate
Sat 05:14:15 PM 34.0376 -82.0143 309° West  Level FlightAware Approximate
Sat 05:15:15 PM 34.0609 -82.0494 316° Northwest  Level FlightAware Approximate
Sat 05:16:15 PM 34.0864 -82.0795 308° West  Level FlightAware Approximate
Sat 05:17:15 PM 34.1095 -82.1148 308° West  Level FlightAware Approximate
Sat 05:18:15 PM 34.1325 -82.1501 308° West  Level FlightAware Approximate
Sat 05:19:15 PM 34.1555 -82.1855 308° West  Level FlightAware Approximate
Sat 05:20:15 PM 34.1785 -82.2208 308° West  Level FlightAware Approximate
Sat 05:21:15 PM 34.2015 -82.2562 308° West  Level FlightAware Approximate
Sat 05:22:15 PM 34.2245 -82.2916 308° West  Level FlightAware Approximate
Sat 05:23:15 PM 34.2475 -82.3271 308° West  Level FlightAware Approximate
Sat 05:24:15 PM 34.2705 -82.3625 308° West  Level FlightAware Approximate
Sat 05:25:15 PM 34.2934 -82.3980 308° West  Level FlightAware Approximate
Sat 05:26:15 PM 34.3164 -82.4335 308° West  Level FlightAware Approximate
Sat 05:27:15 PM 34.3393 -82.4690 308° West  Level FlightAware Approximate
Sat 05:28:15 PM 34.3623 -82.5045 308° West  Level FlightAware Approximate
Sat 05:29:15 PM 34.3852 -82.5400 308° West  Level FlightAware Approximate
Sat 05:30:15 PM 34.4081 -82.5756 308° West  Level FlightAware Approximate

Login

Don't have an account? Register now (free) for customized features, flight alerts, and more!